createdAt,value
2022-09-03T00:00:06.731Z,6.31
2022-09-03T00:02:45.902Z,6.32
2022-09-03T00:05:24.217Z,6.30
2022-09-03T00:08:05.086Z,6.30
2022-09-03T00:10:45.136Z,6.19
2022-09-03T00:13:24.829Z,6.21
2022-09-03T00:15:56.338Z,6.24
2022-09-03T00:18:33.724Z,6.15
2022-09-03T00:21:09.463Z,6.12
2022-09-03T00:23:43.646Z,6.08
2022-09-03T00:26:26.709Z,6.15
2022-09-03T00:29:03.792Z,6.10
2022-09-03T00:31:39.033Z,6.06
2022-09-03T00:34:18.035Z,6.17
2022-09-03T00:36:47.511Z,6.07
2022-09-03T00:39:19.665Z,5.99
2022-09-03T00:42:08.176Z,5.98
2022-09-03T00:45:10.140Z,6.05
2022-09-03T00:47:58.829Z,5.95
2022-09-03T00:50:46.516Z,5.91
2022-09-03T00:53:29.393Z,5.86
2022-09-03T00:56:09.592Z,5.89
2022-09-03T00:58:58.411Z,5.86
2022-09-03T01:01:37.643Z,5.80
2022-09-03T01:04:28.852Z,5.91
2022-09-03T01:07:10.435Z,5.81
2022-09-03T01:09:54.982Z,5.86
2022-09-03T01:12:41.191Z,5.70
2022-09-03T01:15:18.488Z,5.75
2022-09-03T01:18:09.509Z,5.76
2022-09-03T01:20:58.787Z,5.79
2022-09-03T01:24:07.473Z,5.86
2022-09-03T01:27:03.578Z,5.85
2022-09-03T01:29:45.879Z,5.83
2022-09-03T01:32:25.072Z,5.83
2022-09-03T01:35:02.980Z,5.71
2022-09-03T01:37:48.584Z,5.77
2022-09-03T01:40:29.435Z,5.64
2022-09-03T01:43:18.828Z,5.68
2022-09-03T01:46:00.535Z,5.65
2022-09-03T01:48:47.212Z,5.63
2022-09-03T01:51:25.290Z,5.57
2022-09-03T01:54:21.461Z,5.65
2022-09-03T01:57:35.325Z,5.58
2022-09-03T02:00:13.472Z,5.56
2022-09-03T02:02:48.195Z,5.60
2022-09-03T02:05:20.738Z,5.50
2022-09-03T02:07:53.161Z,5.65
2022-09-03T02:10:30.106Z,5.67
2022-09-03T02:13:06.227Z,5.74
2022-09-03T02:15:39.114Z,5.77
2022-09-03T02:18:16.452Z,5.81
2022-09-03T02:20:47.964Z,5.84
2022-09-03T02:23:17.964Z,5.77
2022-09-03T02:25:58.359Z,5.84
2022-09-03T02:28:29.262Z,5.80
2022-09-03T02:30:58.471Z,5.82
2022-09-03T02:33:29.464Z,5.83
2022-09-03T02:35:58.515Z,5.85
2022-09-03T02:38:28.518Z,5.92
2022-09-03T02:40:57.359Z,5.92
2022-09-03T02:43:35.675Z,5.96
2022-09-03T02:46:10.328Z,5.92
2022-09-03T02:48:40.547Z,5.93
2022-09-03T02:51:13.733Z,5.90
2022-09-03T02:53:44.205Z,5.83
2022-09-03T02:56:13.915Z,5.88
2022-09-03T02:58:42.645Z,5.82
2022-09-03T03:01:12.792Z,5.82
2022-09-03T03:03:52.126Z,5.92
2022-09-03T03:06:21.883Z,5.81
2022-09-03T03:08:51.666Z,5.91
2022-09-03T03:11:22.077Z,5.87
2022-09-03T03:13:50.766Z,5.92
2022-09-03T03:16:20.258Z,5.90
2022-09-03T03:18:49.161Z,5.93
2022-09-03T03:21:20.520Z,5.98
2022-09-03T03:23:49.281Z,6.01
2022-09-03T03:26:20.758Z,5.93
2022-09-03T03:28:57.089Z,5.97
2022-09-03T03:31:27.205Z,5.95
2022-09-03T03:33:58.903Z,5.99
2022-09-03T03:36:35.109Z,6.12
2022-09-03T03:39:04.244Z,6.11
2022-09-03T03:41:35.219Z,6.14
2022-09-03T03:44:07.291Z,6.22
2022-09-03T03:46:38.149Z,6.28
2022-09-03T03:49:07.669Z,6.28
2022-09-03T03:51:39.169Z,6.41
2022-09-03T03:54:08.354Z,6.42
2022-09-03T03:56:37.513Z,6.45
2022-09-03T03:59:06.737Z,6.37
2022-09-03T04:01:35.502Z,6.47
2022-09-03T04:04:05.760Z,6.47
2022-09-03T04:06:34.514Z,6.56
2022-09-03T04:09:04.800Z,6.68
2022-09-03T04:11:33.651Z,6.69
2022-09-03T04:14:04.723Z,6.76
2022-09-03T04:16:34.139Z,6.81
2022-09-03T04:19:02.921Z,6.88
2022-09-03T04:21:32.821Z,7.00
2022-09-03T04:24:01.453Z,7.01
2022-09-03T04:26:34.266Z,7.07
2022-09-03T04:29:07.204Z,7.19
2022-09-03T04:31:37.866Z,7.16
2022-09-03T04:34:07.294Z,7.26
2022-09-03T04:36:37.556Z,7.33
2022-09-03T04:39:06.365Z,7.36
2022-09-03T04:41:37.176Z,7.43
2022-09-03T04:44:05.845Z,7.49
2022-09-03T04:46:34.564Z,7.39
2022-09-03T04:49:03.987Z,7.31
2022-09-03T04:51:33.133Z,7.42
2022-09-03T04:54:03.743Z,7.55
2022-09-03T04:56:36.732Z,7.64
2022-09-03T04:59:08.221Z,7.75
2022-09-03T05:01:40.137Z,7.82
2022-09-03T05:04:10.161Z,7.89
2022-09-03T05:06:39.303Z,8.03
2022-09-03T05:09:08.466Z,8.21
2022-09-03T05:11:38.833Z,8.33
2022-09-03T05:14:11.847Z,8.43
2022-09-03T05:16:41.071Z,8.48
2022-09-03T05:19:10.980Z,8.63
2022-09-03T05:21:39.990Z,8.67
2022-09-03T05:24:08.892Z,8.80
2022-09-03T05:26:41.520Z,8.98
2022-09-03T05:29:10.402Z,9.02
2022-09-03T05:31:40.991Z,9.05
2022-09-03T05:34:16.688Z,9.19
2022-09-03T05:36:49.967Z,9.26
2022-09-03T05:39:18.733Z,9.35
2022-09-03T05:41:51.860Z,9.46
2022-09-03T05:44:21.565Z,9.50
2022-09-03T05:46:51.710Z,9.50
2022-09-03T05:49:20.651Z,9.60
2022-09-03T05:51:49.499Z,9.65
2022-09-03T05:54:20.752Z,9.64
2022-09-03T05:56:51.592Z,9.66
2022-09-03T05:59:20.619Z,9.65
2022-09-03T06:01:52.244Z,9.79
2022-09-03T06:04:24.851Z,9.95
2022-09-03T06:06:53.856Z,10.03
2022-09-03T06:09:23.991Z,10.15
2022-09-03T06:11:57.162Z,10.26
2022-09-03T06:14:26.257Z,10.35
2022-09-03T06:16:56.595Z,10.46
2022-09-03T06:19:25.464Z,10.65
2022-09-03T06:21:55.505Z,10.64
2022-09-03T06:24:27.855Z,10.62
2022-09-03T06:26:58.807Z,10.76
2022-09-03T06:29:27.785Z,10.76
2022-09-03T06:31:57.349Z,10.88
2022-09-03T06:34:27.299Z,11.08
2022-09-03T06:36:56.105Z,10.91
2022-09-03T06:39:25.900Z,10.97
2022-09-03T06:41:55.189Z,10.83
2022-09-03T06:44:34.615Z,10.98
2022-09-03T06:47:03.396Z,11.08
2022-09-03T06:49:32.279Z,10.87
2022-09-03T06:52:01.156Z,10.94
2022-09-03T06:54:29.873Z,11.10
2022-09-03T06:56:59.226Z,11.38
2022-09-03T06:59:28.601Z,11.38
2022-09-03T07:02:00.902Z,11.46
2022-09-03T07:04:29.652Z,11.66
2022-09-03T07:06:58.371Z,11.73
2022-09-03T07:09:27.168Z,11.97
2022-09-03T07:11:56.662Z,11.99
2022-09-03T07:14:25.858Z,11.93
2022-09-03T07:16:56.092Z,11.91
2022-09-03T07:19:27.009Z,12.03
2022-09-03T07:21:55.710Z,12.24
2022-09-03T07:24:24.361Z,12.34
2022-09-03T07:26:53.103Z,12.40
2022-09-03T07:29:22.395Z,12.55
2022-09-03T07:31:53.284Z,12.35
2022-09-03T07:34:27.198Z,12.56
2022-09-03T07:36:57.299Z,12.66
2022-09-03T07:39:26.090Z,12.65
2022-09-03T07:41:55.051Z,12.61
2022-09-03T07:44:24.491Z,12.71
2022-09-03T07:46:53.459Z,12.58
2022-09-03T07:49:23.098Z,12.92
2022-09-03T07:51:54.709Z,13.11
2022-09-03T07:54:27.468Z,12.95
2022-09-03T07:56:56.985Z,13.00
2022-09-03T07:59:26.407Z,13.02
2022-09-03T08:01:55.378Z,12.91
2022-09-03T08:04:24.167Z,12.71
2022-09-03T08:06:55.853Z,12.65
2022-09-03T08:09:26.261Z,12.61
2022-09-03T08:11:55.033Z,12.45
2022-09-03T08:14:23.744Z,12.25
2022-09-03T08:16:52.807Z,12.44
2022-09-03T08:19:22.681Z,12.30
2022-09-03T08:21:51.402Z,12.10
2022-09-03T08:24:24.773Z,12.05
2022-09-03T08:26:54.895Z,12.07
2022-09-03T08:29:23.696Z,12.16
2022-09-03T08:31:52.822Z,12.25
2022-09-03T08:34:21.755Z,12.23
2022-09-03T08:36:50.622Z,12.32
2022-09-03T08:39:19.814Z,12.45
2022-09-03T08:42:30.127Z,12.40
2022-09-03T08:45:02.726Z,12.50
2022-09-03T08:47:46.033Z,12.55
2022-09-03T08:50:26.886Z,12.53
2022-09-03T08:53:10.075Z,12.61
2022-09-03T08:55:49.246Z,12.66
2022-09-03T08:58:23.996Z,12.67
2022-09-03T09:01:02.804Z,12.69
2022-09-03T09:03:54.842Z,12.65
2022-09-03T09:06:37.316Z,12.76
2022-09-03T09:09:26.056Z,13.03
2022-09-03T09:12:10.148Z,13.20
2022-09-03T09:14:52.414Z,13.34
2022-09-03T09:17:47.365Z,13.43
2022-09-03T09:20:30.818Z,13.54
2022-09-03T09:23:06.564Z,13.55
2022-09-03T09:25:45.834Z,13.42
2022-09-03T09:28:20.995Z,13.53
2022-09-03T09:30:54.647Z,13.51
2022-09-03T09:33:25.579Z,13.44
2022-09-03T09:35:54.227Z,13.39
2022-09-03T09:38:31.669Z,13.09
2022-09-03T09:41:11.949Z,12.97
2022-09-03T09:43:41.326Z,12.71
2022-09-03T09:46:16.570Z,12.76
2022-09-03T09:48:52.190Z,12.64
2022-09-03T09:51:24.181Z,12.55
2022-09-03T09:54:04.857Z,12.63
2022-09-03T09:56:33.812Z,12.73
2022-09-03T09:59:07.986Z,12.85
2022-09-03T10:01:41.915Z,12.88
2022-09-03T10:04:13.590Z,12.82
2022-09-03T10:06:57.470Z,12.75
2022-09-03T10:09:32.342Z,12.88
2022-09-03T10:12:19.903Z,12.95
2022-09-03T10:14:58.729Z,12.97
2022-09-03T10:17:43.938Z,13.12
2022-09-03T10:20:31.487Z,13.21
2022-09-03T10:23:15.908Z,13.24
2022-09-03T10:26:07.684Z,13.10
2022-09-03T10:28:41.605Z,13.23
2022-09-03T10:31:46.964Z,13.37
2022-09-03T10:34:31.323Z,13.40
2022-09-03T10:37:16.092Z,13.50
2022-09-03T10:40:03.726Z,13.49
2022-09-03T10:42:46.807Z,13.48
2022-09-03T10:45:24.726Z,13.47
2022-09-03T10:48:27.749Z,13.41
2022-09-03T10:51:05.830Z,13.33
2022-09-03T10:54:03.313Z,13.34
2022-09-03T10:56:41.996Z,13.20
2022-09-03T10:59:36.699Z,13.25
2022-09-03T11:02:30.885Z,13.24
2022-09-03T11:05:07.750Z,13.25
2022-09-03T11:07:46.211Z,13.26
2022-09-03T11:10:25.039Z,13.23
2022-09-03T11:13:10.641Z,13.10
2022-09-03T11:15:45.067Z,13.11
2022-09-03T11:18:25.778Z,13.06
2022-09-03T11:21:07.757Z,13.02
2022-09-03T11:23:45.391Z,12.98
2022-09-03T11:26:18.765Z,12.94
2022-09-03T11:28:59.096Z,12.73
2022-09-03T11:31:48.324Z,12.52
2022-09-03T11:34:33.435Z,12.03
2022-09-03T11:37:20.702Z,12.13
2022-09-03T11:40:06.158Z,12.29
2022-09-03T11:42:39.350Z,12.42
2022-09-03T11:45:37.533Z,12.52
2022-09-03T11:48:37.540Z,12.67
2022-09-03T11:51:19.346Z,12.79
2022-09-03T11:53:57.598Z,12.73
2022-09-03T11:56:28.264Z,12.84
2022-09-03T11:59:21.134Z,12.92
2022-09-03T12:01:54.786Z,12.93
2022-09-03T12:04:33.653Z,12.83
2022-09-03T12:07:45.763Z,12.80
2022-09-03T12:10:33.301Z,12.89
2022-09-03T12:13:20.144Z,13.00
2022-09-03T12:16:20.561Z,13.07
2022-09-03T12:18:53.230Z,13.13
2022-09-03T12:21:23.242Z,13.28
2022-09-03T12:23:58.507Z,13.32
2022-09-03T12:26:29.005Z,13.33
2022-09-03T12:29:01.374Z,13.29
2022-09-03T12:31:33.102Z,13.39
2022-09-03T12:34:09.122Z,13.51
2022-09-03T12:36:42.062Z,13.58
2022-09-03T12:39:13.165Z,13.36
2022-09-03T12:42:03.873Z,13.06
2022-09-03T12:44:41.288Z,13.06
2022-09-03T12:50:11.178Z,12.72
2022-09-03T12:52:45.628Z,12.44
2022-09-03T12:55:29.721Z,12.36
2022-09-03T12:58:12.856Z,12.14
2022-09-03T13:00:50.062Z,12.05
2022-09-03T13:03:31.147Z,11.92
2022-09-03T13:06:04.714Z,11.85
2022-09-03T13:08:38.531Z,11.73
2022-09-03T13:11:08.688Z,11.71
2022-09-03T13:13:40.739Z,11.64
2022-09-03T13:16:56.181Z,11.77
2022-09-03T13:19:42.355Z,11.82
2022-09-03T13:22:25.296Z,12.01
2022-09-03T13:25:15.261Z,12.17
2022-09-03T13:28:00.072Z,12.13
2022-09-03T13:30:38.659Z,12.08
2022-09-03T13:33:20.028Z,12.02
2022-09-03T13:35:56.476Z,12.01
2022-09-03T13:38:37.113Z,12.08
2022-09-03T13:41:19.790Z,12.23
2022-09-03T13:43:59.695Z,12.37
2022-09-03T13:46:37.196Z,12.39
2022-09-03T13:49:38.184Z,12.47
2022-09-03T13:52:23.295Z,12.50
2022-09-03T13:55:00.452Z,12.45
2022-09-03T13:57:38.221Z,12.53
2022-09-03T14:00:10.360Z,12.53
2022-09-03T14:02:53.922Z,12.58
2022-09-03T14:05:43.116Z,12.55
2022-09-03T14:08:25.212Z,12.62
2022-09-03T14:11:08.738Z,12.62
2022-09-03T14:14:01.710Z,12.71
2022-09-03T14:16:40.733Z,12.67
2022-09-03T14:19:18.615Z,12.71
2022-09-03T14:21:56.229Z,12.64
2022-09-03T14:24:32.500Z,12.58
2022-09-03T14:27:04.715Z,12.64
2022-09-03T14:29:35.819Z,12.67
2022-09-03T14:32:25.418Z,12.73
2022-09-03T14:35:27.365Z,12.85
2022-09-03T14:38:32.140Z,12.89
2022-09-03T14:41:08.252Z,12.95
2022-09-03T14:44:32.941Z,13.04
2022-09-03T14:47:20.082Z,13.10
2022-09-03T14:50:04.341Z,13.19
2022-09-03T14:53:01.623Z,13.37
2022-09-03T14:55:52.522Z,13.53
2022-09-03T14:58:39.859Z,13.69
2022-09-03T15:01:15.766Z,13.70
2022-09-03T15:04:31.369Z,14.00
2022-09-03T15:07:23.200Z,14.16
2022-09-03T15:10:05.232Z,14.26
2022-09-03T15:12:42.590Z,14.24
2022-09-03T15:15:21.954Z,14.43
2022-09-03T15:18:04.843Z,14.55
2022-09-03T15:20:52.036Z,14.64
2022-09-03T15:23:49.870Z,14.60
2022-09-03T15:26:55.627Z,14.63
2022-09-03T15:29:39.598Z,14.67
2022-09-03T15:32:25.532Z,14.78
2022-09-03T15:35:10.924Z,14.86
2022-09-03T15:37:48.689Z,14.99
2022-09-03T15:40:32.637Z,14.90
2022-09-03T15:43:10.251Z,14.96
2022-09-03T15:45:57.701Z,14.96
2022-09-03T15:48:40.337Z,14.90
2022-09-03T15:51:21.626Z,14.92
2022-09-03T15:53:57.190Z,14.93
2022-09-03T15:56:37.096Z,14.95
2022-09-03T15:59:16.067Z,14.98
2022-09-03T16:01:54.241Z,15.02
2022-09-03T16:04:42.514Z,15.11
2022-09-03T16:07:26.206Z,15.11
2022-09-03T16:10:28.234Z,15.09
2022-09-03T16:13:07.174Z,14.91
2022-09-03T16:15:44.795Z,14.76
2022-09-03T16:18:30.300Z,14.60
2022-09-03T16:21:07.426Z,14.41
2022-09-03T16:23:48.770Z,14.16
2022-09-03T16:26:26.770Z,14.03
2022-09-03T16:29:01.070Z,13.99
2022-09-03T16:31:59.784Z,13.65
2022-09-03T16:34:47.191Z,13.24
2022-09-03T16:37:30.408Z,12.89
2022-09-03T16:40:16.355Z,12.55
2022-09-03T16:42:55.500Z,12.26
2022-09-03T16:45:41.534Z,11.96
2022-09-03T16:48:31.911Z,11.74
2022-09-03T16:51:29.107Z,11.59
2022-09-03T16:54:19.994Z,11.47
2022-09-03T16:57:04.001Z,11.32
2022-09-03T17:00:11.024Z,11.14
2022-09-03T17:03:05.414Z,10.85
2022-09-03T17:06:30.144Z,10.75
2022-09-03T17:09:16.122Z,10.66
2022-09-03T17:12:04.512Z,10.48
2022-09-03T17:15:22.284Z,10.40
2022-09-03T17:18:27.036Z,10.32
2022-09-03T17:21:22.471Z,10.25
2022-09-03T17:24:18.959Z,10.13
2022-09-03T17:27:07.612Z,10.12
2022-09-03T17:30:09.369Z,10.08
2022-09-03T17:33:35.397Z,10.00
2022-09-03T17:36:27.607Z,9.96
2022-09-03T17:39:56.228Z,9.94
2022-09-03T17:42:44.821Z,9.82
2022-09-03T17:45:34.438Z,9.75
2022-09-03T17:48:37.202Z,9.71
2022-09-03T17:51:14.421Z,9.66
2022-09-03T17:54:18.465Z,9.59
2022-09-03T17:57:04.397Z,9.55
2022-09-03T17:59:57.675Z,9.52
2022-09-03T18:02:37.288Z,9.47
2022-09-03T18:05:24.477Z,9.42
2022-09-03T18:08:09.057Z,9.34
2022-09-03T18:10:50.708Z,9.38
2022-09-03T18:13:46.268Z,9.29
2022-09-03T18:16:30.988Z,9.22
2022-09-03T18:19:14.086Z,9.21
2022-09-03T18:22:11.523Z,9.14
2022-09-03T18:25:15.256Z,9.05
2022-09-03T18:28:10.686Z,8.99
2022-09-03T18:30:59.488Z,8.87
2022-09-03T18:33:46.625Z,8.84
2022-09-03T18:36:38.084Z,8.80
2022-09-03T18:39:39.962Z,8.71
2022-09-03T18:43:09.234Z,8.69
2022-09-03T18:47:16.420Z,8.64
2022-09-03T18:49:29.916Z,8.62
2022-09-03T18:52:30.609Z,8.59
2022-09-03T18:55:29.883Z,8.53
2022-09-03T18:58:33.296Z,8.49
2022-09-03T19:01:30.463Z,8.44
2022-09-03T19:04:34.760Z,8.49
2022-09-03T19:07:29.763Z,8.39
2022-09-03T19:10:27.468Z,8.44
2022-09-03T19:13:41.491Z,8.33
2022-09-03T19:16:39.560Z,8.39
2022-09-03T19:19:57.921Z,8.33
2022-09-03T19:22:52.332Z,8.26
2022-09-03T19:25:41.143Z,8.25
2022-09-03T19:28:34.611Z,8.28
2022-09-03T19:32:00.079Z,8.26
2022-09-03T19:35:09.462Z,8.25
2022-09-03T19:38:12.126Z,8.19
2022-09-03T19:41:41.680Z,8.19
2022-09-03T19:44:51.263Z,8.20
2022-09-03T19:47:58.266Z,8.15
2022-09-03T19:50:56.329Z,8.07
2022-09-03T19:53:44.733Z,8.06
2022-09-03T19:56:47.990Z,8.03
2022-09-03T19:59:54.387Z,8.01
2022-09-03T20:02:50.998Z,8.04
2022-09-03T20:05:42.886Z,7.99
2022-09-03T20:08:38.674Z,8.03
2022-09-03T20:11:13.658Z,7.96
2022-09-03T20:14:19.906Z,7.86
2022-09-03T20:17:06.726Z,7.88
2022-09-03T20:19:56.072Z,7.79
2022-09-03T20:22:40.522Z,7.70
2022-09-03T20:25:49.458Z,7.72
2022-09-03T20:28:45.751Z,7.70
2022-09-03T20:31:25.530Z,7.66
2022-09-03T20:34:24.759Z,7.76
2022-09-03T20:37:13.953Z,7.68
2022-09-03T20:40:02.378Z,7.68
2022-09-03T20:43:07.509Z,7.64
2022-09-03T20:46:03.182Z,7.59
2022-09-03T20:48:46.098Z,7.66
2022-09-03T20:51:22.029Z,7.68
2022-09-03T20:54:12.347Z,7.65
2022-09-03T20:57:10.820Z,7.70
2022-09-03T21:00:01.952Z,7.70
2022-09-03T21:03:16.072Z,7.76
2022-09-03T21:06:04.471Z,7.68
2022-09-03T21:09:02.119Z,7.75
2022-09-03T21:11:40.824Z,7.73
2022-09-03T21:14:29.237Z,7.71
2022-09-03T21:17:21.413Z,7.68
2022-09-03T21:20:10.589Z,7.61
2022-09-03T21:22:59.431Z,7.61
2022-09-03T21:25:36.571Z,7.56
2022-09-03T21:28:14.176Z,7.56
2022-09-03T21:30:49.882Z,7.54
2022-09-03T21:33:27.578Z,7.50
2022-09-03T21:36:07.263Z,7.45
2022-09-03T21:38:39.452Z,7.41
2022-09-03T21:41:23.164Z,7.44
2022-09-03T21:43:59.633Z,7.40
2022-09-03T21:46:36.059Z,7.38
2022-09-03T21:49:11.181Z,7.44
2022-09-03T21:51:49.202Z,7.35
2022-09-03T21:54:26.139Z,7.38
2022-09-03T21:57:14.982Z,7.31
2022-09-03T22:00:14.330Z,7.32
2022-09-03T22:02:43.522Z,7.29
2022-09-03T22:05:12.298Z,7.24
2022-09-03T22:08:14.586Z,7.33
2022-09-03T22:11:00.494Z,7.24
2022-09-03T22:13:38.632Z,7.25
2022-09-03T22:16:17.220Z,7.20
2022-09-03T22:18:47.239Z,7.19
2022-09-03T22:21:25.014Z,7.31
2022-09-03T22:24:14.741Z,7.24
2022-09-03T22:26:55.421Z,7.20
2022-09-03T22:29:40.366Z,7.24
2022-09-03T22:32:25.437Z,7.22
2022-09-03T22:35:18.288Z,7.22
2022-09-03T22:38:13.216Z,7.24
2022-09-03T22:40:52.255Z,7.17
2022-09-03T22:43:56.346Z,7.21
2022-09-03T22:46:36.098Z,7.19
2022-09-03T22:49:25.470Z,7.02
2022-09-03T22:52:24.329Z,7.12
2022-09-03T22:55:15.728Z,7.19
2022-09-03T22:58:00.575Z,7.19
2022-09-03T23:00:30.837Z,7.24
2022-09-03T23:03:09.767Z,7.26
2022-09-03T23:05:49.352Z,7.26
2022-09-03T23:08:26.397Z,7.22
2022-09-03T23:11:08.239Z,7.24
2022-09-03T23:13:44.016Z,7.20
2022-09-03T23:16:31.206Z,7.22
2022-09-03T23:19:13.431Z,7.22
2022-09-03T23:21:48.425Z,7.26
2022-09-03T23:24:27.474Z,7.24
2022-09-03T23:26:56.639Z,7.31
2022-09-03T23:29:33.338Z,7.26
2022-09-03T23:32:05.413Z,7.22
2022-09-03T23:34:36.629Z,7.18
2022-09-03T23:37:34.119Z,7.16
2022-09-03T23:40:25.884Z,7.17
2022-09-03T23:43:43.959Z,7.10
2022-09-03T23:46:20.848Z,7.05
2022-09-03T23:49:17.485Z,7.02
2022-09-03T23:52:07.834Z,6.96
2022-09-03T23:54:45.273Z,6.84
2022-09-03T23:57:25.745Z,6.89
